Terminal Aerodrome Forecast
Issued by NWS

Home | Current Version | Previous Version | Text Only | Print | Product List | Glossary On
Versions: 1 2 3 4 5 6 7 8 9 10 11 12 13 14 15 16
757
FTUS43 KGRB 301749
TAFAUW
TAF
KAUW 301749Z 3018/3118 07012G23KT P6SM -DZ BKN012
      TEMPO 3018/3022 -RA BKN007
     FM302200 06011G20KT P6SM -DZ BKN008
     FM310900 03010G17KT P6SM BKN008
     FM311200 03009KT P6SM BKN020
     FM311500 03012G21KT P6SM BKN100=

USA.gov is the U.S. government's official web portal to all federal, state and local government web resources and services.